sensor_id;sensor_type;location;lat;lon;timestamp;P1;durP1;ratioP1;P2;durP2;ratioP2
20334;SDS011;10325;51.468;5.804;2023-03-29T00:01:30;0.90;;;0.70;;
20334;SDS011;10325;51.468;5.804;2023-03-29T00:04:04;1.23;;;0.80;;
20334;SDS011;10325;51.468;5.804;2023-03-29T00:06:35;1.50;;;0.87;;
20334;SDS011;10325;51.468;5.804;2023-03-29T00:09:07;1.83;;;0.77;;
20334;SDS011;10325;51.468;5.804;2023-03-29T00:11:36;1.17;;;0.70;;
20334;SDS011;10325;51.468;5.804;2023-03-29T00:14:08;1.43;;;0.80;;
20334;SDS011;10325;51.468;5.804;2023-03-29T00:16:52;1.43;;;0.90;;
20334;SDS011;10325;51.468;5.804;2023-03-29T00:19:20;1.50;;;1.07;;
20334;SDS011;10325;51.468;5.804;2023-03-29T00:21:51;1.40;;;1.03;;
20334;SDS011;10325;51.468;5.804;2023-03-29T00:24:21;0.90;;;0.80;;
20334;SDS011;10325;51.468;5.804;2023-03-29T00:26:54;1.10;;;0.93;;
20334;SDS011;10325;51.468;5.804;2023-03-29T00:29:24;1.63;;;0.87;;
20334;SDS011;10325;51.468;5.804;2023-03-29T00:31:52;1.47;;;1.07;;
20334;SDS011;10325;51.468;5.804;2023-03-29T00:34:25;1.30;;;1.17;;
20334;SDS011;10325;51.468;5.804;2023-03-29T00:37:05;0.77;;;0.70;;
20334;SDS011;10325;51.468;5.804;2023-03-29T00:39:49;0.80;;;0.60;;
20334;SDS011;10325;51.468;5.804;2023-03-29T00:42:18;0.73;;;0.60;;
20334;SDS011;10325;51.468;5.804;2023-03-29T00:44:58;1.10;;;0.70;;
20334;SDS011;10325;51.468;5.804;2023-03-29T00:47:58;1.20;;;0.80;;
20334;SDS011;10325;51.468;5.804;2023-03-29T00:53:28;0.90;;;0.70;;
20334;SDS011;10325;51.468;5.804;2023-03-29T00:56:35;1.00;;;0.70;;
20334;SDS011;10325;51.468;5.804;2023-03-29T00:59:16;1.10;;;0.70;;
20334;SDS011;10325;51.468;5.804;2023-03-29T01:01:55;1.47;;;1.10;;
20334;SDS011;10325;51.468;5.804;2023-03-29T01:04:39;0.83;;;0.83;;
20334;SDS011;10325;51.468;5.804;2023-03-29T01:08:15;1.20;;;0.80;;
20334;SDS011;10325;51.468;5.804;2023-03-29T01:10:42;0.80;;;0.80;;
20334;SDS011;10325;51.468;5.804;2023-03-29T01:13:23;0.90;;;0.80;;
20334;SDS011;10325;51.468;5.804;2023-03-29T01:16:07;0.73;;;0.70;;
20334;SDS011;10325;51.468;5.804;2023-03-29T01:18:42;1.00;;;0.90;;
20334;SDS011;10325;51.468;5.804;2023-03-29T01:21:20;1.07;;;0.93;;
20334;SDS011;10325;51.468;5.804;2023-03-29T01:24:16;1.03;;;0.70;;
20334;SDS011;10325;51.468;5.804;2023-03-29T01:27:09;1.20;;;0.90;;
20334;SDS011;10325;51.468;5.804;2023-03-29T01:29:56;0.80;;;0.70;;
20334;SDS011;10325;51.468;5.804;2023-03-29T01:32:44;1.57;;;0.80;;
20334;SDS011;10325;51.468;5.804;2023-03-29T01:36:00;1.27;;;0.83;;
20334;SDS011;10325;51.468;5.804;2023-03-29T01:41:40;1.50;;;0.80;;
20334;SDS011;10325;51.468;5.804;2023-03-29T01:56:38;0.97;;;0.63;;
20334;SDS011;10325;51.468;5.804;2023-03-29T01:59:13;1.20;;;1.10;;
20334;SDS011;10325;51.468;5.804;2023-03-29T02:01:58;0.93;;;0.80;;
20334;SDS011;10325;51.468;5.804;2023-03-29T02:04:34;1.20;;;0.77;;
20334;SDS011;10325;51.468;5.804;2023-03-29T02:07:07;0.60;;;0.60;;
20334;SDS011;10325;51.468;5.804;2023-03-29T02:09:41;0.90;;;0.80;;
20334;SDS011;10325;51.468;5.804;2023-03-29T02:12:09;0.73;;;0.73;;
20334;SDS011;10325;51.468;5.804;2023-03-29T02:14:44;0.70;;;0.60;;
20334;SDS011;10325;51.468;5.804;2023-03-29T02:17:25;0.87;;;0.80;;
20334;SDS011;10325;51.468;5.804;2023-03-29T02:22:59;0.83;;;0.70;;
20334;SDS011;10325;51.468;5.804;2023-03-29T02:25:54;1.10;;;0.80;;
20334;SDS011;10325;51.468;5.804;2023-03-29T02:28:24;2.60;;;0.70;;
20334;SDS011;10325;51.468;5.804;2023-03-29T02:31:06;0.90;;;0.67;;
20334;SDS011;10325;51.468;5.804;2023-03-29T02:36:45;0.67;;;0.67;;
20334;SDS011;10325;51.468;5.804;2023-03-29T02:39:29;1.17;;;0.80;;
20334;SDS011;10325;51.468;5.804;2023-03-29T02:42:06;1.07;;;0.70;;
20334;SDS011;10325;51.468;5.804;2023-03-29T02:44:38;0.83;;;0.77;;
20334;SDS011;10325;51.468;5.804;2023-03-29T02:47:19;1.30;;;0.90;;
20334;SDS011;10325;51.468;5.804;2023-03-29T02:49:58;1.10;;;1.00;;
20334;SDS011;10325;51.468;5.804;2023-03-29T02:52:33;0.70;;;0.70;;
20334;SDS011;10325;51.468;5.804;2023-03-29T02:55:11;0.70;;;0.70;;
20334;SDS011;10325;51.468;5.804;2023-03-29T02:57:50;1.27;;;1.17;;
20334;SDS011;10325;51.468;5.804;2023-03-29T03:00:20;1.10;;;0.73;;
20334;SDS011;10325;51.468;5.804;2023-03-29T03:02:51;0.80;;;0.80;;
20334;SDS011;10325;51.468;5.804;2023-03-29T03:05:29;0.93;;;0.70;;
20334;SDS011;10325;51.468;5.804;2023-03-29T03:07:59;1.97;;;0.90;;
20334;SDS011;10325;51.468;5.804;2023-03-29T03:10:27;0.80;;;0.80;;
20334;SDS011;10325;51.468;5.804;2023-03-29T03:12:57;1.53;;;0.60;;
20334;SDS011;10325;51.468;5.804;2023-03-29T03:15:26;1.03;;;0.70;;
20334;SDS011;10325;51.468;5.804;2023-03-29T03:18:11;1.27;;;0.97;;
20334;SDS011;10325;51.468;5.804;2023-03-29T03:20:39;0.77;;;0.70;;
20334;SDS011;10325;51.468;5.804;2023-03-29T03:23:15;0.63;;;0.60;;
20334;SDS011;10325;51.468;5.804;2023-03-29T03:25:46;0.80;;;0.80;;
20334;SDS011;10325;51.468;5.804;2023-03-29T03:28:19;1.00;;;0.80;;
20334;SDS011;10325;51.468;5.804;2023-03-29T03:30:49;0.83;;;0.57;;
20334;SDS011;10325;51.468;5.804;2023-03-29T03:33:23;1.00;;;0.80;;
20334;SDS011;10325;51.468;5.804;2023-03-29T03:35:56;0.90;;;0.70;;
20334;SDS011;10325;51.468;5.804;2023-03-29T03:38:33;0.83;;;0.70;;
20334;SDS011;10325;51.468;5.804;2023-03-29T03:41:05;0.73;;;0.67;;
20334;SDS011;10325;51.468;5.804;2023-03-29T03:43:37;1.20;;;0.80;;
20334;SDS011;10325;51.468;5.804;2023-03-29T03:46:21;1.00;;;0.90;;
20334;SDS011;10325;51.468;5.804;2023-03-29T03:48:53;1.20;;;0.83;;
20334;SDS011;10325;51.468;5.804;2023-03-29T03:51:22;1.17;;;0.70;;
20334;SDS011;10325;51.468;5.804;2023-03-29T03:53:56;2.57;;;0.60;;
20334;SDS011;10325;51.468;5.804;2023-03-29T03:56:27;0.90;;;0.77;;
20334;SDS011;10325;51.468;5.804;2023-03-29T03:58:58;0.80;;;0.77;;
20334;SDS011;10325;51.468;5.804;2023-03-29T04:01:28;0.93;;;0.83;;
20334;SDS011;10325;51.468;5.804;2023-03-29T04:03:59;1.00;;;0.73;;
20334;SDS011;10325;51.468;5.804;2023-03-29T04:06:28;0.97;;;0.93;;
20334;SDS011;10325;51.468;5.804;2023-03-29T04:09:03;0.83;;;0.70;;
20334;SDS011;10325;51.468;5.804;2023-03-29T04:11:32;4.10;;;0.70;;
20334;SDS011;10325;51.468;5.804;2023-03-29T04:14:03;1.27;;;0.90;;
20334;SDS011;10325;51.468;5.804;2023-03-29T04:16:35;1.07;;;0.97;;
20334;SDS011;10325;51.468;5.804;2023-03-29T04:19:15;1.23;;;0.70;;
20334;SDS011;10325;51.468;5.804;2023-03-29T04:21:46;1.00;;;0.90;;
20334;SDS011;10325;51.468;5.804;2023-03-29T04:24:17;1.10;;;0.70;;
20334;SDS011;10325;51.468;5.804;2023-03-29T04:26:47;1.07;;;0.77;;
20334;SDS011;10325;51.468;5.804;2023-03-29T04:29:17;1.53;;;0.83;;
20334;SDS011;10325;51.468;5.804;2023-03-29T04:31:48;1.50;;;0.87;;
20334;SDS011;10325;51.468;5.804;2023-03-29T04:34:20;1.23;;;0.90;;
20334;SDS011;10325;51.468;5.804;2023-03-29T04:36:50;0.80;;;0.70;;
20334;SDS011;10325;51.468;5.804;2023-03-29T04:39:18;1.03;;;0.80;;
20334;SDS011;10325;51.468;5.804;2023-03-29T04:41:47;0.60;;;0.60;;
20334;SDS011;10325;51.468;5.804;2023-03-29T04:44:19;1.00;;;0.90;;
20334;SDS011;10325;51.468;5.804;2023-03-29T04:46:50;0.90;;;0.70;;
20334;SDS011;10325;51.468;5.804;2023-03-29T04:49:19;1.10;;;0.80;;
20334;SDS011;10325;51.468;5.804;2023-03-29T04:51:52;2.00;;;0.90;;
20334;SDS011;10325;51.468;5.804;2023-03-29T04:54:24;0.93;;;0.70;;
20334;SDS011;10325;51.468;5.804;2023-03-29T04:56:53;1.00;;;0.90;;
20334;SDS011;10325;51.468;5.804;2023-03-29T04:59:23;1.07;;;0.83;;
20334;SDS011;10325;51.468;5.804;2023-03-29T05:02:05;0.80;;;0.80;;
20334;SDS011;10325;51.468;5.804;2023-03-29T05:04:37;0.93;;;0.80;;
20334;SDS011;10325;51.468;5.804;2023-03-29T05:07:06;1.33;;;1.03;;
20334;SDS011;10325;51.468;5.804;2023-03-29T05:09:37;1.17;;;0.90;;
20334;SDS011;10325;51.468;5.804;2023-03-29T05:12:09;0.90;;;0.80;;
20334;SDS011;10325;51.468;5.804;2023-03-29T05:14:53;1.40;;;1.30;;
20334;SDS011;10325;51.468;5.804;2023-03-29T05:17:24;0.90;;;0.87;;
20334;SDS011;10325;51.468;5.804;2023-03-29T05:19:53;1.43;;;0.70;;
20334;SDS011;10325;51.468;5.804;2023-03-29T05:22:24;1.37;;;1.27;;
20334;SDS011;10325;51.468;5.804;2023-03-29T05:24:55;1.00;;;0.90;;
20334;SDS011;10325;51.468;5.804;2023-03-29T05:27:25;1.20;;;1.07;;
20334;SDS011;10325;51.468;5.804;2023-03-29T05:29:56;1.00;;;0.80;;
20334;SDS011;10325;51.468;5.804;2023-03-29T05:32:41;0.73;;;0.70;;
20334;SDS011;10325;51.468;5.804;2023-03-29T05:35:22;0.87;;;0.87;;
20334;SDS011;10325;51.468;5.804;2023-03-29T05:37:54;1.13;;;1.00;;
20334;SDS011;10325;51.468;5.804;2023-03-29T05:40:25;1.23;;;0.80;;
20334;SDS011;10325;51.468;5.804;2023-03-29T05:42:57;3.30;;;1.50;;
20334;SDS011;10325;51.468;5.804;2023-03-29T05:45:36;1.23;;;1.13;;
20334;SDS011;10325;51.468;5.804;2023-03-29T05:48:06;1.30;;;0.87;;
20334;SDS011;10325;51.468;5.804;2023-03-29T05:50:37;2.60;;;1.10;;
20334;SDS011;10325;51.468;5.804;2023-03-29T05:53:07;1.77;;;1.10;;
20334;SDS011;10325;51.468;5.804;2023-03-29T05:55:39;1.57;;;1.10;;
20334;SDS011;10325;51.468;5.804;2023-03-29T05:58:06;3.17;;;0.90;;
20334;SDS011;10325;51.468;5.804;2023-03-29T06:00:35;1.13;;;0.93;;
20334;SDS011;10325;51.468;5.804;2023-03-29T06:03:07;0.90;;;0.90;;
20334;SDS011;10325;51.468;5.804;2023-03-29T06:05:59;1.37;;;1.07;;
20334;SDS011;10325;51.468;5.804;2023-03-29T06:08:41;2.23;;;1.33;;
20334;SDS011;10325;51.468;5.804;2023-03-29T06:11:14;1.20;;;1.10;;
20334;SDS011;10325;51.468;5.804;2023-03-29T06:13:51;1.40;;;1.30;;
20334;SDS011;10325;51.468;5.804;2023-03-29T06:16:22;1.10;;;1.00;;
20334;SDS011;10325;51.468;5.804;2023-03-29T06:18:52;1.40;;;1.10;;
20334;SDS011;10325;51.468;5.804;2023-03-29T06:21:22;1.63;;;1.03;;
20334;SDS011;10325;51.468;5.804;2023-03-29T06:23:52;1.00;;;0.90;;
20334;SDS011;10325;51.468;5.804;2023-03-29T06:26:24;2.03;;;0.90;;
20334;SDS011;10325;51.468;5.804;2023-03-29T06:28:56;2.13;;;1.00;;
20334;SDS011;10325;51.468;5.804;2023-03-29T06:31:26;1.10;;;0.87;;
20334;SDS011;10325;51.468;5.804;2023-03-29T06:33:56;1.33;;;1.10;;
20334;SDS011;10325;51.468;5.804;2023-03-29T06:36:28;2.83;;;1.53;;
20334;SDS011;10325;51.468;5.804;2023-03-29T06:38:59;2.43;;;1.30;;
20334;SDS011;10325;51.468;5.804;2023-03-29T06:41:39;1.33;;;1.10;;
20334;SDS011;10325;51.468;5.804;2023-03-29T06:44:13;2.00;;;0.93;;
20334;SDS011;10325;51.468;5.804;2023-03-29T06:46:41;1.87;;;1.33;;
20334;SDS011;10325;51.468;5.804;2023-03-29T06:49:13;1.33;;;1.00;;
20334;SDS011;10325;51.468;5.804;2023-03-29T06:51:43;2.53;;;1.33;;
20334;SDS011;10325;51.468;5.804;2023-03-29T06:54:16;1.50;;;1.10;;
20334;SDS011;10325;51.468;5.804;2023-03-29T06:56:48;1.83;;;1.20;;
20334;SDS011;10325;51.468;5.804;2023-03-29T06:59:20;1.87;;;0.97;;
20334;SDS011;10325;51.468;5.804;2023-03-29T07:01:51;15.20;;;5.17;;
20334;SDS011;10325;51.468;5.804;2023-03-29T07:04:24;57.83;;;14.67;;
20334;SDS011;10325;51.468;5.804;2023-03-29T07:06:56;39.17;;;10.57;;
20334;SDS011;10325;51.468;5.804;2023-03-29T07:09:33;43.73;;;10.07;;
20334;SDS011;10325;51.468;5.804;2023-03-29T07:12:03;38.70;;;10.50;;
20334;SDS011;10325;51.468;5.804;2023-03-29T07:14:31;43.17;;;11.43;;
20334;SDS011;10325;51.468;5.804;2023-03-29T07:17:03;35.30;;;11.00;;
20334;SDS011;10325;51.468;5.804;2023-03-29T07:19:35;40.67;;;11.77;;
20334;SDS011;10325;51.468;5.804;2023-03-29T07:22:07;38.43;;;10.60;;
20334;SDS011;10325;51.468;5.804;2023-03-29T07:24:39;38.40;;;10.93;;
20334;SDS011;10325;51.468;5.804;2023-03-29T07:27:08;35.17;;;11.00;;
20334;SDS011;10325;51.468;5.804;2023-03-29T07:29:41;32.37;;;10.90;;
20334;SDS011;10325;51.468;5.804;2023-03-29T07:32:10;34.77;;;10.27;;
20334;SDS011;10325;51.468;5.804;2023-03-29T07:34:39;32.63;;;10.27;;
20334;SDS011;10325;51.468;5.804;2023-03-29T07:37:12;29.00;;;10.70;;
20334;SDS011;10325;51.468;5.804;2023-03-29T07:39:48;36.17;;;11.23;;
20334;SDS011;10325;51.468;5.804;2023-03-29T07:42:18;32.37;;;10.60;;
20334;SDS011;10325;51.468;5.804;2023-03-29T07:44:48;25.67;;;10.10;;
20334;SDS011;10325;51.468;5.804;2023-03-29T07:47:20;25.23;;;9.50;;
20334;SDS011;10325;51.468;5.804;2023-03-29T07:49:49;31.17;;;9.77;;
20334;SDS011;10325;51.468;5.804;2023-03-29T07:52:20;30.13;;;10.83;;
20334;SDS011;10325;51.468;5.804;2023-03-29T07:54:53;35.70;;;9.40;;
20334;SDS011;10325;51.468;5.804;2023-03-29T07:57:22;37.83;;;9.33;;
20334;SDS011;10325;51.468;5.804;2023-03-29T07:59:53;25.17;;;8.17;;
20334;SDS011;10325;51.468;5.804;2023-03-29T08:02:20;28.17;;;8.83;;
20334;SDS011;10325;51.468;5.804;2023-03-29T08:04:51;30.83;;;9.43;;
20334;SDS011;10325;51.468;5.804;2023-03-29T08:07:20;28.40;;;9.20;;
20334;SDS011;10325;51.468;5.804;2023-03-29T08:09:53;24.20;;;9.43;;
20334;SDS011;10325;51.468;5.804;2023-03-29T08:12:25;26.27;;;8.63;;
20334;SDS011;10325;51.468;5.804;2023-03-29T08:14:54;20.20;;;7.53;;
20334;SDS011;10325;51.468;5.804;2023-03-29T08:17:24;23.33;;;7.47;;
20334;SDS011;10325;51.468;5.804;2023-03-29T08:19:55;24.77;;;7.73;;
20334;SDS011;10325;51.468;5.804;2023-03-29T08:22:34;23.33;;;7.87;;
20334;SDS011;10325;51.468;5.804;2023-03-29T08:25:04;24.77;;;8.23;;
20334;SDS011;10325;51.468;5.804;2023-03-29T08:27:35;23.77;;;7.80;;
20334;SDS011;10325;51.468;5.804;2023-03-29T08:30:04;22.57;;;7.20;;
20334;SDS011;10325;51.468;5.804;2023-03-29T08:32:38;19.77;;;6.97;;
20334;SDS011;10325;51.468;5.804;2023-03-29T08:35:06;27.50;;;7.43;;
20334;SDS011;10325;51.468;5.804;2023-03-29T08:37:38;18.00;;;7.43;;
20334;SDS011;10325;51.468;5.804;2023-03-29T08:40:05;16.73;;;6.80;;
20334;SDS011;10325;51.468;5.804;2023-03-29T08:45:33;12.93;;;5.87;;
20334;SDS011;10325;51.468;5.804;2023-03-29T08:48:20;19.47;;;6.67;;
20334;SDS011;10325;51.468;5.804;2023-03-29T08:51:14;27.37;;;9.77;;
20334;SDS011;10325;51.468;5.804;2023-03-29T08:57:01;26.53;;;8.80;;
20334;SDS011;10325;51.468;5.804;2023-03-29T08:59:41;24.87;;;8.87;;
20334;SDS011;10325;51.468;5.804;2023-03-29T09:02:30;26.27;;;8.03;;
20334;SDS011;10325;51.468;5.804;2023-03-29T09:05:08;23.17;;;7.87;;
20334;SDS011;10325;51.468;5.804;2023-03-29T09:07:43;24.87;;;7.63;;
20334;SDS011;10325;51.468;5.804;2023-03-29T09:10:15;22.93;;;7.47;;
20334;SDS011;10325;51.468;5.804;2023-03-29T09:12:55;27.30;;;8.03;;
20334;SDS011;10325;51.468;5.804;2023-03-29T09:15:55;23.50;;;7.40;;
20334;SDS011;10325;51.468;5.804;2023-03-29T09:18:52;20.70;;;6.60;;
20334;SDS011;10325;51.468;5.804;2023-03-29T09:21:58;20.17;;;6.93;;
20334;SDS011;10325;51.468;5.804;2023-03-29T09:25:17;22.47;;;6.73;;
20334;SDS011;10325;51.468;5.804;2023-03-29T09:31:11;18.17;;;6.20;;
20334;SDS011;10325;51.468;5.804;2023-03-29T09:34:12;16.23;;;5.90;;
20334;SDS011;10325;51.468;5.804;2023-03-29T09:36:57;18.00;;;6.10;;
20334;SDS011;10325;51.468;5.804;2023-03-29T09:39:54;15.47;;;5.07;;
20334;SDS011;10325;51.468;5.804;2023-03-29T09:42:25;15.73;;;5.33;;
20334;SDS011;10325;51.468;5.804;2023-03-29T09:45:01;12.87;;;5.33;;
20334;SDS011;10325;51.468;5.804;2023-03-29T09:47:48;13.70;;;5.20;;
20334;SDS011;10325;51.468;5.804;2023-03-29T09:50:37;16.33;;;5.13;;
20334;SDS011;10325;51.468;5.804;2023-03-29T09:53:14;12.63;;;4.97;;
20334;SDS011;10325;51.468;5.804;2023-03-29T09:55:47;13.90;;;5.03;;
20334;SDS011;10325;51.468;5.804;2023-03-29T09:58:19;11.57;;;4.43;;
20334;SDS011;10325;51.468;5.804;2023-03-29T10:01:04;12.00;;;4.63;;
20334;SDS011;10325;51.468;5.804;2023-03-29T10:03:46;9.07;;;3.50;;
20334;SDS011;10325;51.468;5.804;2023-03-29T10:06:23;16.10;;;4.07;;
20334;SDS011;10325;51.468;5.804;2023-03-29T10:09:01;10.13;;;3.60;;
20334;SDS011;10325;51.468;5.804;2023-03-29T10:11:33;11.50;;;4.10;;
20334;SDS011;10325;51.468;5.804;2023-03-29T10:14:15;9.27;;;4.10;;
20334;SDS011;10325;51.468;5.804;2023-03-29T10:16:53;8.53;;;3.57;;
20334;SDS011;10325;51.468;5.804;2023-03-29T10:19:32;7.20;;;3.17;;
20334;SDS011;10325;51.468;5.804;2023-03-29T10:22:03;12.17;;;3.83;;
20334;SDS011;10325;51.468;5.804;2023-03-29T10:24:35;8.03;;;3.00;;
20334;SDS011;10325;51.468;5.804;2023-03-29T10:27:06;9.33;;;3.73;;
20334;SDS011;10325;51.468;5.804;2023-03-29T10:29:47;7.90;;;3.00;;
20334;SDS011;10325;51.468;5.804;2023-03-29T10:32:29;7.70;;;3.00;;
20334;SDS011;10325;51.468;5.804;2023-03-29T10:35:09;10.73;;;2.70;;
20334;SDS011;10325;51.468;5.804;2023-03-29T10:38:10;6.93;;;2.97;;
20334;SDS011;10325;51.468;5.804;2023-03-29T10:40:46;7.27;;;3.00;;
20334;SDS011;10325;51.468;5.804;2023-03-29T10:43:42;6.37;;;2.93;;
20334;SDS011;10325;51.468;5.804;2023-03-29T10:49:18;5.73;;;2.57;;
20334;SDS011;10325;51.468;5.804;2023-03-29T10:51:48;5.03;;;2.83;;
20334;SDS011;10325;51.468;5.804;2023-03-29T10:54:28;7.37;;;2.50;;
20334;SDS011;10325;51.468;5.804;2023-03-29T10:56:58;7.33;;;2.83;;
20334;SDS011;10325;51.468;5.804;2023-03-29T10:59:38;6.90;;;2.83;;
20334;SDS011;10325;51.468;5.804;2023-03-29T11:02:24;5.50;;;2.40;;
20334;SDS011;10325;51.468;5.804;2023-03-29T11:05:33;3.80;;;2.20;;
20334;SDS011;10325;51.468;5.804;2023-03-29T11:08:14;3.53;;;1.90;;
20334;SDS011;10325;51.468;5.804;2023-03-29T11:14:16;5.30;;;2.57;;
20334;SDS011;10325;51.468;5.804;2023-03-29T11:20:03;5.90;;;2.40;;
20334;SDS011;10325;51.468;5.804;2023-03-29T11:34:54;4.73;;;1.50;;
20334;SDS011;10325;51.468;5.804;2023-03-29T11:41:09;5.70;;;1.50;;
20334;SDS011;10325;51.468;5.804;2023-03-29T11:44:05;2.83;;;1.50;;
20334;SDS011;10325;51.468;5.804;2023-03-29T11:47:00;4.27;;;1.53;;
20334;SDS011;10325;51.468;5.804;2023-03-29T11:49:49;2.37;;;1.07;;
20334;SDS011;10325;51.468;5.804;2023-03-29T11:52:59;2.60;;;1.40;;
20334;SDS011;10325;51.468;5.804;2023-03-29T11:55:34;2.00;;;1.10;;
20334;SDS011;10325;51.468;5.804;2023-03-29T11:58:20;1.53;;;1.03;;
20334;SDS011;10325;51.468;5.804;2023-03-29T12:01:19;1.53;;;1.10;;
20334;SDS011;10325;51.468;5.804;2023-03-29T12:04:02;3.40;;;1.37;;
20334;SDS011;10325;51.468;5.804;2023-03-29T12:06:45;1.53;;;1.00;;
20334;SDS011;10325;51.468;5.804;2023-03-29T12:09:49;2.10;;;1.13;;
20334;SDS011;10325;51.468;5.804;2023-03-29T12:12:42;2.27;;;1.20;;
20334;SDS011;10325;51.468;5.804;2023-03-29T12:15:32;1.27;;;1.00;;
20334;SDS011;10325;51.468;5.804;2023-03-29T12:21:01;1.33;;;1.13;;
20334;SDS011;10325;51.468;5.804;2023-03-29T12:23:58;2.10;;;1.20;;
20334;SDS011;10325;51.468;5.804;2023-03-29T12:26:44;2.20;;;1.33;;
20334;SDS011;10325;51.468;5.804;2023-03-29T12:30:18;3.57;;;1.00;;
20334;SDS011;10325;51.468;5.804;2023-03-29T12:36:53;2.07;;;1.40;;
20334;SDS011;10325;51.468;5.804;2023-03-29T12:39:30;4.60;;;1.60;;
20334;SDS011;10325;51.468;5.804;2023-03-29T12:42:21;2.80;;;1.57;;
20334;SDS011;10325;51.468;5.804;2023-03-29T12:44:59;1.20;;;1.03;;
20334;SDS011;10325;51.468;5.804;2023-03-29T12:47:43;3.60;;;1.20;;
20334;SDS011;10325;51.468;5.804;2023-03-29T12:50:18;1.50;;;1.17;;
20334;SDS011;10325;51.468;5.804;2023-03-29T12:53:03;1.70;;;1.20;;
20334;SDS011;10325;51.468;5.804;2023-03-29T12:55:47;2.27;;;1.30;;
20334;SDS011;10325;51.468;5.804;2023-03-29T12:58:24;1.73;;;1.30;;
20334;SDS011;10325;51.468;5.804;2023-03-29T13:01:30;1.83;;;1.27;;
20334;SDS011;10325;51.468;5.804;2023-03-29T13:04:14;1.83;;;1.20;;
20334;SDS011;10325;51.468;5.804;2023-03-29T13:07:03;3.00;;;1.13;;
20334;SDS011;10325;51.468;5.804;2023-03-29T13:09:49;2.23;;;1.50;;
20334;SDS011;10325;51.468;5.804;2023-03-29T13:12:34;1.60;;;1.13;;
20334;SDS011;10325;51.468;5.804;2023-03-29T13:15:23;2.10;;;1.40;;
20334;SDS011;10325;51.468;5.804;2023-03-29T13:21:02;2.23;;;1.20;;
20334;SDS011;10325;51.468;5.804;2023-03-29T13:23:55;1.50;;;1.00;;
20334;SDS011;10325;51.468;5.804;2023-03-29T13:30:58;1.67;;;1.03;;
20334;SDS011;10325;51.468;5.804;2023-03-29T13:36:06;2.23;;;1.40;;
20334;SDS011;10325;51.468;5.804;2023-03-29T13:38:48;2.13;;;1.13;;
20334;SDS011;10325;51.468;5.804;2023-03-29T13:41:25;1.67;;;1.10;;
20334;SDS011;10325;51.468;5.804;2023-03-29T13:44:27;2.27;;;1.00;;
20334;SDS011;10325;51.468;5.804;2023-03-29T13:47:09;1.40;;;1.10;;
20334;SDS011;10325;51.468;5.804;2023-03-29T13:49:51;1.60;;;1.50;;
20334;SDS011;10325;51.468;5.804;2023-03-29T13:52:42;2.63;;;1.13;;
20334;SDS011;10325;51.468;5.804;2023-03-29T13:55:32;1.73;;;1.20;;
20334;SDS011;10325;51.468;5.804;2023-03-29T14:01:17;1.63;;;1.23;;
20334;SDS011;10325;51.468;5.804;2023-03-29T14:03:57;1.57;;;1.20;;
20334;SDS011;10325;51.468;5.804;2023-03-29T14:06:28;1.33;;;0.90;;
20334;SDS011;10325;51.468;5.804;2023-03-29T14:09:11;1.13;;;0.97;;
20334;SDS011;10325;51.468;5.804;2023-03-29T14:11:45;1.80;;;1.00;;
20334;SDS011;10325;51.468;5.804;2023-03-29T14:14:22;1.50;;;1.30;;
20334;SDS011;10325;51.468;5.804;2023-03-29T14:16:59;2.33;;;1.63;;
20334;SDS011;10325;51.468;5.804;2023-03-29T14:19:36;2.10;;;1.40;;
20334;SDS011;10325;51.468;5.804;2023-03-29T14:22:15;1.53;;;0.90;;
20334;SDS011;10325;51.468;5.804;2023-03-29T14:24:51;1.20;;;0.93;;
20334;SDS011;10325;51.468;5.804;2023-03-29T14:27:20;1.67;;;1.10;;
20334;SDS011;10325;51.468;5.804;2023-03-29T14:29:52;1.30;;;1.10;;
20334;SDS011;10325;51.468;5.804;2023-03-29T14:32:26;2.90;;;1.10;;
20334;SDS011;10325;51.468;5.804;2023-03-29T14:34:59;1.97;;;1.27;;
20334;SDS011;10325;51.468;5.804;2023-03-29T14:37:34;2.13;;;1.30;;
20334;SDS011;10325;51.468;5.804;2023-03-29T14:40:02;1.57;;;1.03;;
20334;SDS011;10325;51.468;5.804;2023-03-29T14:42:52;2.30;;;1.50;;
20334;SDS011;10325;51.468;5.804;2023-03-29T14:45:25;1.53;;;1.20;;
20334;SDS011;10325;51.468;5.804;2023-03-29T14:47:57;1.67;;;1.10;;
20334;SDS011;10325;51.468;5.804;2023-03-29T14:50:32;1.40;;;1.13;;
20334;SDS011;10325;51.468;5.804;2023-03-29T14:53:03;1.77;;;1.40;;
20334;SDS011;10325;51.468;5.804;2023-03-29T14:55:35;1.50;;;1.40;;
20334;SDS011;10325;51.468;5.804;2023-03-29T14:58:28;1.30;;;1.20;;
20334;SDS011;10325;51.468;5.804;2023-03-29T15:01:04;1.33;;;1.23;;
20334;SDS011;10325;51.468;5.804;2023-03-29T15:03:55;1.40;;;0.93;;
20334;SDS011;10325;51.468;5.804;2023-03-29T15:06:38;2.13;;;1.33;;
20334;SDS011;10325;51.468;5.804;2023-03-29T15:09:13;1.27;;;1.17;;
20334;SDS011;10325;51.468;5.804;2023-03-29T15:11:54;2.00;;;1.33;;
20334;SDS011;10325;51.468;5.804;2023-03-29T15:14:28;1.40;;;1.30;;
20334;SDS011;10325;51.468;5.804;2023-03-29T15:20:27;2.30;;;1.30;;
20334;SDS011;10325;51.468;5.804;2023-03-29T15:25:50;2.40;;;1.60;;
20334;SDS011;10325;51.468;5.804;2023-03-29T15:28:30;2.00;;;1.27;;
20334;SDS011;10325;51.468;5.804;2023-03-29T15:31:12;2.83;;;1.60;;
20334;SDS011;10325;51.468;5.804;2023-03-29T15:33:45;2.37;;;1.30;;
20334;SDS011;10325;51.468;5.804;2023-03-29T15:36:40;2.30;;;1.20;;
20334;SDS011;10325;51.468;5.804;2023-03-29T15:39:12;2.33;;;1.40;;
20334;SDS011;10325;51.468;5.804;2023-03-29T15:41:45;1.80;;;1.40;;
20334;SDS011;10325;51.468;5.804;2023-03-29T15:44:22;3.10;;;1.60;;
20334;SDS011;10325;51.468;5.804;2023-03-29T15:47:08;1.70;;;1.40;;
20334;SDS011;10325;51.468;5.804;2023-03-29T15:49:46;2.27;;;1.30;;
20334;SDS011;10325;51.468;5.804;2023-03-29T15:52:18;2.73;;;1.60;;
20334;SDS011;10325;51.468;5.804;2023-03-29T15:54:47;4.90;;;1.70;;
20334;SDS011;10325;51.468;5.804;2023-03-29T15:57:18;1.77;;;1.33;;
20334;SDS011;10325;51.468;5.804;2023-03-29T15:59:49;2.67;;;1.40;;
20334;SDS011;10325;51.468;5.804;2023-03-29T16:02:20;1.87;;;1.43;;
20334;SDS011;10325;51.468;5.804;2023-03-29T16:04:52;3.07;;;1.80;;
20334;SDS011;10325;51.468;5.804;2023-03-29T16:07:21;4.90;;;2.67;;
20334;SDS011;10325;51.468;5.804;2023-03-29T16:09:50;8.10;;;3.40;;
20334;SDS011;10325;51.468;5.804;2023-03-29T16:12:23;4.47;;;2.10;;
20334;SDS011;10325;51.468;5.804;2023-03-29T16:14:52;4.53;;;2.20;;
20334;SDS011;10325;51.468;5.804;2023-03-29T16:17:23;4.93;;;2.30;;
20334;SDS011;10325;51.468;5.804;2023-03-29T16:19:56;2.67;;;1.80;;
20334;SDS011;10325;51.468;5.804;2023-03-29T16:22:26;4.53;;;2.37;;
20334;SDS011;10325;51.468;5.804;2023-03-29T16:24:57;4.07;;;2.20;;
20334;SDS011;10325;51.468;5.804;2023-03-29T16:27:26;3.23;;;2.20;;
20334;SDS011;10325;51.468;5.804;2023-03-29T16:29:58;3.70;;;2.20;;
20334;SDS011;10325;51.468;5.804;2023-03-29T16:32:27;3.70;;;1.93;;
20334;SDS011;10325;51.468;5.804;2023-03-29T16:34:59;2.20;;;1.83;;
20334;SDS011;10325;51.468;5.804;2023-03-29T16:37:44;2.10;;;1.80;;
20334;SDS011;10325;51.468;5.804;2023-03-29T16:40:16;2.20;;;1.53;;
20334;SDS011;10325;51.468;5.804;2023-03-29T16:42:46;2.17;;;1.60;;
20334;SDS011;10325;51.468;5.804;2023-03-29T16:45:16;2.80;;;1.60;;
20334;SDS011;10325;51.468;5.804;2023-03-29T16:47:47;2.80;;;1.60;;
20334;SDS011;10325;51.468;5.804;2023-03-29T16:50:19;2.77;;;1.60;;
20334;SDS011;10325;51.468;5.804;2023-03-29T16:52:51;4.37;;;1.73;;
20334;SDS011;10325;51.468;5.804;2023-03-29T16:55:23;3.30;;;1.50;;
20334;SDS011;10325;51.468;5.804;2023-03-29T16:57:53;2.30;;;1.60;;
20334;SDS011;10325;51.468;5.804;2023-03-29T17:00:25;2.90;;;1.57;;
20334;SDS011;10325;51.468;5.804;2023-03-29T17:02:53;3.90;;;1.60;;
20334;SDS011;10325;51.468;5.804;2023-03-29T17:05:27;3.37;;;1.97;;
20334;SDS011;10325;51.468;5.804;2023-03-29T17:07:57;2.17;;;1.40;;
20334;SDS011;10325;51.468;5.804;2023-03-29T17:10:29;3.33;;;1.30;;